Antonello — IKVS — position and weather

sailwx.info

Track history (hours):
 
Tides and Currents Weather Stations Pressure Air Temp Water Temp Dewpoint Dewpoint Depression Visibility Wind Speed Wind Dir Waves Ship Positions

Antonello

Last reported at 2015-Sep-14 09:18 UTC. Time now 2016-May-28 10:01 UTC.
Position N 37°53' E 015°59'.
Warning: this ship's position is months out of date.

Length 70 m; draft 4.2 m.

Type: Ship. MMSI: 247422000.

Date/timePositionNaut miles runAvg speedWind from/ knotsBaromVisibWave heightAir tempDewpointWater temp
2015-Sep-14 09:18N 37°53' E 015°59'7 9.8
2015-Sep-14 08:32N 37°53' E 015°49'9 9.5
2015-Sep-14 07:33N 37°57' E 015°38'9 9.3
2015-Sep-14 06:33N 38°06' E 015°35'8 8.4
2015-Sep-14 05:34N 38°14' E 015°36'5 5.0
2015-Sep-14 04:34N 38°19' E 015°38'1010.0
2015-Sep-14 03:34N 38°23' E 015°27'10 9.8
2015-Sep-14 02:33N 38°26' E 015°15'10 9.5
2015-Sep-14 01:30N 38°31' E 015°03'12 9.0
2015-Sep-14 00:08N 38°31' E 014°47'6 9.7
2015-Sep-13 23:34N 38°33' E 014°41'4 0.4
2015-Sep-13 13:33N 38°34' E 014°35'19 2.3
2015-Sep-13 05:14N 38°31' E 014°59'7 8.9
2015-Sep-13 04:28N 38°28' E 015°07'8 8.8
2015-Sep-13 03:32N 38°26' E 015°17'8 8.6
2015-Sep-13 02:33N 38°24' E 015°27'8 8.1
2015-Sep-13 01:33N 38°20' E 015°36'5 5.3
2015-Sep-13 00:33N 38°15' E 015°39'9 9.1
2015-Sep-12 23:33N 38°06' E 015°36'9 9.1
2015-Sep-12 22:33N 37°58' E 015°33'9 8.9
2015-Sep-12 21:33N 37°49' E 015°30'18 8.8
2015-Sep-12 19:32N 37°32' E 015°24'16 1.0
2015-Sep-12 03:11N 37°47' E 015°28'7 9.5
2015-Sep-12 02:24N 37°55' E 015°30'8 9.4
2015-Sep-12 01:32N 38°03' E 015°32'9 9.0
2015-Sep-12 00:33N 38°11' E 015°35'7 7.4
2015-Sep-11 23:33N 38°18' E 015°39'1010.0
2015-Sep-11 22:33N 38°23' E 015°27'23 1.2
2015-Sep-11 03:33N 38°28' E 014°58'0 0.0
2015-Sep-10 22:14N 38°28' E 014°58'7 0.2
2015-Sep-09 10:26N 38°31' E 015°07'910.0
2015-Sep-09 09:33N 38°31' E 015°19'28 1.9
2015-Sep-08 19:04N 38°27' E 015°54'3 5.4
2015-Sep-08 18:32N 38°27' E 015°51'9 9.6
2015-Sep-08 17:33N 38°28' E 015°39'9 9.5
2015-Sep-08 16:33N 38°29' E 015°27'9 9.1
2015-Sep-08 15:33N 38°30' E 015°15'9 9.0
2015-Sep-08 14:32N 38°32' E 015°04'4 0.1
2015-Sep-07 08:32N 38°32' E 014°58'9 8.5
2015-Sep-07 07:32N 38°28' E 015°08'8 8.3
2015-Sep-07 06:33N 38°26' E 015°18'8 8.1
2015-Sep-07 05:33N 38°23' E 015°28'8 8.1
2015-Sep-07 04:33N 38°19' E 015°37'5 5.0
2015-Sep-07 03:33N 38°15' E 015°39'8 7.5
2015-Sep-07 02:33N 38°08' E 015°36'8 8.1
2015-Sep-07 01:33N 38°00' E 015°34'8 7.7
2015-Sep-07 00:33N 37°53' E 015°31'24 1.2
2015-Sep-06 05:31N 37°30' E 015°22'9 8.2
2015-Sep-06 04:27N 37°39' E 015°24'7 8.1
2015-Sep-06 03:33N 37°46' E 015°26'8 8.3
2015-Sep-06 02:32N 37°54' E 015°29'8 8.1
2015-Sep-06 01:33N 38°01' E 015°32'8 7.9
2015-Sep-06 00:34N 38°09' E 015°35'7 6.9
2015-Sep-05 23:34N 38°15' E 015°39'5 5.2
2015-Sep-05 22:33N 38°19' E 015°34'8 7.8
2015-Sep-05 21:33N 38°20' E 015°24'8 7.7
2015-Sep-05 20:34N 38°22' E 015°15'8 7.7
2015-Sep-05 19:31N 38°24' E 015°05'6 0.5
2015-Sep-05 08:33N 38°25' E 014°58'6 6.3
2015-Sep-05 07:33N 38°31' E 014°58'6 5.3
2015-Sep-05 06:28N 38°35' E 014°53'7 7.1
2015-Sep-05 05:30N 38°32' E 015°01'7 7.1
2015-Sep-05 04:33N 38°30' E 015°09'7 7.2
2015-Sep-05 03:33N 38°30' E 015°18'7 7.0
2015-Sep-05 02:33N 38°30' E 015°27'7 6.9
2015-Sep-05 01:33N 38°29' E 015°36'7 6.9
2015-Sep-05 00:33N 38°27' E 015°45'7 1.4
2015-Sep-04 19:27N 38°27' E 015°54'0 0.0
2015-Sep-04 18:26N 38°27' E 015°54'1 1.1
2015-Sep-04 17:33N 38°27' E 015°53'8 7.9
2015-Sep-04 16:33N 38°29' E 015°43'10 9.8
2015-Sep-04 15:33N 38°29' E 015°31'10 9.7
2015-Sep-04 14:33N 38°30' E 015°18'9 9.3
2015-Sep-04 13:33N 38°32' E 015°07'  
Track history (hours):
 
Tides and Currents Weather Stations Pressure Air Temp Water Temp Dewpoint Dewpoint Depression Visibility Wind Speed Wind Dir Waves Ship Positions

Antonello

Last reported at 2015-Sep-14 09:18 UTC. Time now 2016-May-28 10:01 UTC.
Position N 37°53' E 015°59'.
Warning: this ship's position is months out of date.

Length 70 m; draft 4.2 m.

Type: Ship. MMSI: 247422000.

Date/timePositionNaut miles runAvg speedWind from/ knotsBaromVisibWave heightAir tempDewpointWater temp
2015-Sep-14 09:18N 37°53' E 015°59'7 9.8
2015-Sep-14 08:32N 37°53' E 015°49'9 9.5
2015-Sep-14 07:33N 37°57' E 015°38'9 9.3
2015-Sep-14 06:33N 38°06' E 015°35'8 8.4
2015-Sep-14 05:34N 38°14' E 015°36'5 5.0
2015-Sep-14 04:34N 38°19' E 015°38'1010.0
2015-Sep-14 03:34N 38°23' E 015°27'10 9.8
2015-Sep-14 02:33N 38°26' E 015°15'10 9.5
2015-Sep-14 01:30N 38°31' E 015°03'12 9.0
2015-Sep-14 00:08N 38°31' E 014°47'6 9.7
2015-Sep-13 23:34N 38°33' E 014°41'4 0.4
2015-Sep-13 13:33N 38°34' E 014°35'19 2.3
2015-Sep-13 05:14N 38°31' E 014°59'7 8.9
2015-Sep-13 04:28N 38°28' E 015°07'8 8.8
2015-Sep-13 03:32N 38°26' E 015°17'8 8.6
2015-Sep-13 02:33N 38°24' E 015°27'8 8.1
2015-Sep-13 01:33N 38°20' E 015°36'5 5.3
2015-Sep-13 00:33N 38°15' E 015°39'9 9.1
2015-Sep-12 23:33N 38°06' E 015°36'9 9.1
2015-Sep-12 22:33N 37°58' E 015°33'9 8.9
2015-Sep-12 21:33N 37°49' E 015°30'18 8.8
2015-Sep-12 19:32N 37°32' E 015°24'16 1.0
2015-Sep-12 03:11N 37°47' E 015°28'7 9.5
2015-Sep-12 02:24N 37°55' E 015°30'8 9.4
2015-Sep-12 01:32N 38°03' E 015°32'9 9.0
2015-Sep-12 00:33N 38°11' E 015°35'7 7.4
2015-Sep-11 23:33N 38°18' E 015°39'1010.0
2015-Sep-11 22:33N 38°23' E 015°27'23 1.2
2015-Sep-11 03:33N 38°28' E 014°58'0 0.0
2015-Sep-10 22:14N 38°28' E 014°58'7 0.2
2015-Sep-09 10:26N 38°31' E 015°07'910.0
2015-Sep-09 09:33N 38°31' E 015°19'28 1.9
2015-Sep-08 19:04N 38°27' E 015°54'3 5.4
2015-Sep-08 18:32N 38°27' E 015°51'9 9.6
2015-Sep-08 17:33N 38°28' E 015°39'9 9.5
2015-Sep-08 16:33N 38°29' E 015°27'9 9.1
2015-Sep-08 15:33N 38°30' E 015°15'9 9.0
2015-Sep-08 14:32N 38°32' E 015°04'4 0.1
2015-Sep-07 08:32N 38°32' E 014°58'9 8.5
2015-Sep-07 07:32N 38°28' E 015°08'8 8.3
2015-Sep-07 06:33N 38°26' E 015°18'8 8.1
2015-Sep-07 05:33N 38°23' E 015°28'8 8.1
2015-Sep-07 04:33N 38°19' E 015°37'5 5.0
2015-Sep-07 03:33N 38°15' E 015°39'8 7.5
2015-Sep-07 02:33N 38°08' E 015°36'8 8.1
2015-Sep-07 01:33N 38°00' E 015°34'8 7.7
2015-Sep-07 00:33N 37°53' E 015°31'24 1.2
2015-Sep-06 05:31N 37°30' E 015°22'9 8.2
2015-Sep-06 04:27N 37°39' E 015°24'7 8.1
2015-Sep-06 03:33N 37°46' E 015°26'8 8.3
2015-Sep-06 02:32N 37°54' E 015°29'8 8.1
2015-Sep-06 01:33N 38°01' E 015°32'8 7.9
2015-Sep-06 00:34N 38°09' E 015°35'7 6.9
2015-Sep-05 23:34N 38°15' E 015°39'5 5.2
2015-Sep-05 22:33N 38°19' E 015°34'8 7.8
2015-Sep-05 21:33N 38°20' E 015°24'8 7.7
2015-Sep-05 20:34N 38°22' E 015°15'8 7.7
2015-Sep-05 19:31N 38°24' E 015°05'6 0.5
2015-Sep-05 08:33N 38°25' E 014°58'6 6.3
2015-Sep-05 07:33N 38°31' E 014°58'6 5.3
2015-Sep-05 06:28N 38°35' E 014°53'7 7.1
2015-Sep-05 05:30N 38°32' E 015°01'7 7.1
2015-Sep-05 04:33N 38°30' E 015°09'7 7.2
2015-Sep-05 03:33N 38°30' E 015°18'7 7.0
2015-Sep-05 02:33N 38°30' E 015°27'7 6.9
2015-Sep-05 01:33N 38°29' E 015°36'7 6.9
2015-Sep-05 00:33N 38°27' E 015°45'7 1.4
2015-Sep-04 19:27N 38°27' E 015°54'0 0.0
2015-Sep-04 18:26N 38°27' E 015°54'1 1.1
2015-Sep-04 17:33N 38°27' E 015°53'8 7.9
2015-Sep-04 16:33N 38°29' E 015°43'10 9.8
2015-Sep-04 15:33N 38°29' E 015°31'10 9.7
2015-Sep-04 14:33N 38°30' E 015°18'9 9.3
2015-Sep-04 13:33N 38°32' E 015°07'  

Dump ship's entire track history